sensor_id;sensor_type;location;lat;lon;timestamp;P1;durP1;ratioP1;P2;durP2;ratioP2
3939;SDS011;1984;48.312;9.244;2024-02-23T00:00:30;0.40;;;0.40;;
3939;SDS011;1984;48.312;9.244;2024-02-23T00:02:55;0.40;;;0.40;;
3939;SDS011;1984;48.312;9.244;2024-02-23T00:05:22;0.50;;;0.50;;
3939;SDS011;1984;48.312;9.244;2024-02-23T00:07:48;0.47;;;0.47;;
3939;SDS011;1984;48.312;9.244;2024-02-23T00:10:14;0.50;;;0.50;;
3939;SDS011;1984;48.312;9.244;2024-02-23T00:12:40;0.60;;;0.40;;
3939;SDS011;1984;48.312;9.244;2024-02-23T00:15:06;0.30;;;0.30;;
3939;SDS011;1984;48.312;9.244;2024-02-23T00:17:32;1.37;;;0.40;;
3939;SDS011;1984;48.312;9.244;2024-02-23T00:19:57;0.40;;;0.40;;
3939;SDS011;1984;48.312;9.244;2024-02-23T00:22:23;0.30;;;0.30;;
3939;SDS011;1984;48.312;9.244;2024-02-23T00:24:50;0.30;;;0.30;;
3939;SDS011;1984;48.312;9.244;2024-02-23T00:27:16;0.40;;;0.40;;
3939;SDS011;1984;48.312;9.244;2024-02-23T00:29:41;0.40;;;0.40;;
3939;SDS011;1984;48.312;9.244;2024-02-23T00:32:07;0.40;;;0.40;;
3939;SDS011;1984;48.312;9.244;2024-02-23T00:34:33;0.40;;;0.40;;
3939;SDS011;1984;48.312;9.244;2024-02-23T00:36:59;0.40;;;0.40;;
3939;SDS011;1984;48.312;9.244;2024-02-23T00:39:24;0.30;;;0.30;;
3939;SDS011;1984;48.312;9.244;2024-02-23T00:41:50;5.43;;;0.40;;
3939;SDS011;1984;48.312;9.244;2024-02-23T00:44:15;0.40;;;0.40;;
3939;SDS011;1984;48.312;9.244;2024-02-23T00:46:41;4.00;;;0.40;;
3939;SDS011;1984;48.312;9.244;2024-02-23T00:49:07;0.70;;;0.40;;
3939;SDS011;1984;48.312;9.244;2024-02-23T00:51:32;0.43;;;0.37;;
3939;SDS011;1984;48.312;9.244;2024-02-23T00:53:57;0.53;;;0.40;;
3939;SDS011;1984;48.312;9.244;2024-02-23T00:56:23;0.40;;;0.40;;
3939;SDS011;1984;48.312;9.244;2024-02-23T00:58:50;0.40;;;0.40;;
3939;SDS011;1984;48.312;9.244;2024-02-23T01:01:15;0.40;;;0.40;;
3939;SDS011;1984;48.312;9.244;2024-02-23T01:03:41;0.40;;;0.40;;
3939;SDS011;1984;48.312;9.244;2024-02-23T01:06:07;0.40;;;0.40;;
3939;SDS011;1984;48.312;9.244;2024-02-23T01:08:32;0.60;;;0.50;;
3939;SDS011;1984;48.312;9.244;2024-02-23T01:10:57;0.40;;;0.40;;
3939;SDS011;1984;48.312;9.244;2024-02-23T01:13:23;0.60;;;0.60;;
3939;SDS011;1984;48.312;9.244;2024-02-23T01:15:48;3.60;;;0.57;;
3939;SDS011;1984;48.312;9.244;2024-02-23T01:18:14;0.40;;;0.40;;
3939;SDS011;1984;48.312;9.244;2024-02-23T01:20:40;0.30;;;0.30;;
3939;SDS011;1984;48.312;9.244;2024-02-23T01:23:05;0.40;;;0.40;;
3939;SDS011;1984;48.312;9.244;2024-02-23T01:25:30;1.00;;;0.40;;
3939;SDS011;1984;48.312;9.244;2024-02-23T01:27:56;0.40;;;0.40;;
3939;SDS011;1984;48.312;9.244;2024-02-23T01:30:22;0.40;;;0.40;;
3939;SDS011;1984;48.312;9.244;2024-02-23T01:32:47;1.43;;;0.50;;
3939;SDS011;1984;48.312;9.244;2024-02-23T01:35:13;0.40;;;0.40;;
3939;SDS011;1984;48.312;9.244;2024-02-23T01:37:39;0.60;;;0.60;;
3939;SDS011;1984;48.312;9.244;2024-02-23T01:40:05;0.40;;;0.40;;
3939;SDS011;1984;48.312;9.244;2024-02-23T01:42:31;1.90;;;0.50;;
3939;SDS011;1984;48.312;9.244;2024-02-23T01:44:56;0.40;;;0.40;;
3939;SDS011;1984;48.312;9.244;2024-02-23T01:47:22;0.40;;;0.40;;
3939;SDS011;1984;48.312;9.244;2024-02-23T01:49:49;2.63;;;0.43;;
3939;SDS011;1984;48.312;9.244;2024-02-23T01:52:16;0.40;;;0.40;;
3939;SDS011;1984;48.312;9.244;2024-02-23T01:54:42;0.40;;;0.40;;
3939;SDS011;1984;48.312;9.244;2024-02-23T01:57:08;0.40;;;0.40;;
3939;SDS011;1984;48.312;9.244;2024-02-23T01:59:35;0.50;;;0.50;;
3939;SDS011;1984;48.312;9.244;2024-02-23T02:02:02;0.40;;;0.40;;
3939;SDS011;1984;48.312;9.244;2024-02-23T02:04:28;0.30;;;0.30;;
3939;SDS011;1984;48.312;9.244;2024-02-23T02:06:54;0.40;;;0.40;;
3939;SDS011;1984;48.312;9.244;2024-02-23T02:09:21;0.50;;;0.50;;
3939;SDS011;1984;48.312;9.244;2024-02-23T02:11:47;0.40;;;0.40;;
3939;SDS011;1984;48.312;9.244;2024-02-23T02:14:13;0.60;;;0.60;;
3939;SDS011;1984;48.312;9.244;2024-02-23T02:16:39;0.60;;;0.60;;
3939;SDS011;1984;48.312;9.244;2024-02-23T02:19:04;0.40;;;0.40;;
3939;SDS011;1984;48.312;9.244;2024-02-23T02:21:31;0.40;;;0.40;;
3939;SDS011;1984;48.312;9.244;2024-02-23T02:23:57;0.40;;;0.40;;
3939;SDS011;1984;48.312;9.244;2024-02-23T02:26:22;0.60;;;0.60;;
3939;SDS011;1984;48.312;9.244;2024-02-23T02:28:48;0.40;;;0.40;;
3939;SDS011;1984;48.312;9.244;2024-02-23T02:31:13;0.40;;;0.40;;
3939;SDS011;1984;48.312;9.244;2024-02-23T02:33:39;0.50;;;0.50;;
3939;SDS011;1984;48.312;9.244;2024-02-23T02:36:06;0.40;;;0.40;;
3939;SDS011;1984;48.312;9.244;2024-02-23T02:38:31;1.13;;;0.50;;
3939;SDS011;1984;48.312;9.244;2024-02-23T02:40:58;1.70;;;1.60;;
3939;SDS011;1984;48.312;9.244;2024-02-23T02:43:25;0.30;;;0.30;;
3939;SDS011;1984;48.312;9.244;2024-02-23T02:45:51;0.30;;;0.30;;
3939;SDS011;1984;48.312;9.244;2024-02-23T02:48:17;0.40;;;0.40;;
3939;SDS011;1984;48.312;9.244;2024-02-23T02:50:42;1.73;;;0.60;;
3939;SDS011;1984;48.312;9.244;2024-02-23T02:53:08;0.50;;;0.50;;
3939;SDS011;1984;48.312;9.244;2024-02-23T02:55:35;0.60;;;0.60;;
3939;SDS011;1984;48.312;9.244;2024-02-23T02:58:01;1.60;;;0.47;;
3939;SDS011;1984;48.312;9.244;2024-02-23T03:00:26;1.33;;;0.40;;
3939;SDS011;1984;48.312;9.244;2024-02-23T03:02:53;0.80;;;0.53;;
3939;SDS011;1984;48.312;9.244;2024-02-23T03:05:18;1.20;;;0.60;;
3939;SDS011;1984;48.312;9.244;2024-02-23T03:07:44;0.50;;;0.50;;
3939;SDS011;1984;48.312;9.244;2024-02-23T03:10:09;6.50;;;0.50;;
3939;SDS011;1984;48.312;9.244;2024-02-23T03:12:35;0.40;;;0.40;;
3939;SDS011;1984;48.312;9.244;2024-02-23T03:15:01;0.50;;;0.50;;
3939;SDS011;1984;48.312;9.244;2024-02-23T03:17:30;0.37;;;0.37;;
3939;SDS011;1984;48.312;9.244;2024-02-23T03:19:55;1.13;;;0.50;;
3939;SDS011;1984;48.312;9.244;2024-02-23T03:22:21;0.40;;;0.40;;
3939;SDS011;1984;48.312;9.244;2024-02-23T03:24:46;0.40;;;0.40;;
3939;SDS011;1984;48.312;9.244;2024-02-23T03:27:12;0.50;;;0.50;;
3939;SDS011;1984;48.312;9.244;2024-02-23T03:29:38;1.50;;;0.70;;
3939;SDS011;1984;48.312;9.244;2024-02-23T03:32:04;0.50;;;0.50;;
3939;SDS011;1984;48.312;9.244;2024-02-23T03:34:30;0.50;;;0.50;;
3939;SDS011;1984;48.312;9.244;2024-02-23T03:36:56;1.13;;;0.40;;
3939;SDS011;1984;48.312;9.244;2024-02-23T03:39:23;1.23;;;0.50;;
3939;SDS011;1984;48.312;9.244;2024-02-23T03:41:48;0.50;;;0.50;;
3939;SDS011;1984;48.312;9.244;2024-02-23T03:44:14;0.50;;;0.50;;
3939;SDS011;1984;48.312;9.244;2024-02-23T03:46:39;0.53;;;0.53;;
3939;SDS011;1984;48.312;9.244;2024-02-23T03:49:05;1.00;;;0.50;;
3939;SDS011;1984;48.312;9.244;2024-02-23T03:51:30;0.50;;;0.50;;
3939;SDS011;1984;48.312;9.244;2024-02-23T03:53:57;0.40;;;0.40;;
3939;SDS011;1984;48.312;9.244;2024-02-23T03:56:23;0.40;;;0.40;;
3939;SDS011;1984;48.312;9.244;2024-02-23T03:58:49;0.50;;;0.50;;
3939;SDS011;1984;48.312;9.244;2024-02-23T04:01:14;0.53;;;0.53;;
3939;SDS011;1984;48.312;9.244;2024-02-23T04:03:40;0.67;;;0.50;;
3939;SDS011;1984;48.312;9.244;2024-02-23T04:06:05;1.80;;;0.60;;
3939;SDS011;1984;48.312;9.244;2024-02-23T04:08:32;0.67;;;0.67;;
3939;SDS011;1984;48.312;9.244;2024-02-23T04:10:58;0.40;;;0.40;;
3939;SDS011;1984;48.312;9.244;2024-02-23T04:13:23;1.13;;;0.40;;
3939;SDS011;1984;48.312;9.244;2024-02-23T04:15:49;3.23;;;0.60;;
3939;SDS011;1984;48.312;9.244;2024-02-23T04:18:14;0.83;;;0.60;;
3939;SDS011;1984;48.312;9.244;2024-02-23T04:20:40;1.67;;;0.80;;
3939;SDS011;1984;48.312;9.244;2024-02-23T04:23:06;1.77;;;1.00;;
3939;SDS011;1984;48.312;9.244;2024-02-23T04:25:32;4.50;;;1.00;;
3939;SDS011;1984;48.312;9.244;2024-02-23T04:27:57;2.53;;;0.60;;
3939;SDS011;1984;48.312;9.244;2024-02-23T04:30:23;3.53;;;0.70;;
3939;SDS011;1984;48.312;9.244;2024-02-23T04:32:48;0.70;;;0.70;;
3939;SDS011;1984;48.312;9.244;2024-02-23T04:35:14;0.87;;;0.60;;
3939;SDS011;1984;48.312;9.244;2024-02-23T04:37:42;0.47;;;0.47;;
3939;SDS011;1984;48.312;9.244;2024-02-23T04:40:10;1.53;;;0.60;;
3939;SDS011;1984;48.312;9.244;2024-02-23T04:42:36;1.13;;;0.60;;
3939;SDS011;1984;48.312;9.244;2024-02-23T04:45:01;0.90;;;0.70;;
3939;SDS011;1984;48.312;9.244;2024-02-23T04:47:27;0.63;;;0.63;;
3939;SDS011;1984;48.312;9.244;2024-02-23T04:49:52;0.60;;;0.60;;
3939;SDS011;1984;48.312;9.244;2024-02-23T04:52:18;1.60;;;0.83;;
3939;SDS011;1984;48.312;9.244;2024-02-23T04:54:43;0.90;;;0.70;;
3939;SDS011;1984;48.312;9.244;2024-02-23T04:57:09;1.13;;;1.13;;
3939;SDS011;1984;48.312;9.244;2024-02-23T04:59:34;1.63;;;0.70;;
3939;SDS011;1984;48.312;9.244;2024-02-23T05:02:00;1.60;;;0.50;;
3939;SDS011;1984;48.312;9.244;2024-02-23T05:04:25;0.80;;;0.60;;
3939;SDS011;1984;48.312;9.244;2024-02-23T05:06:51;1.30;;;0.53;;
3939;SDS011;1984;48.312;9.244;2024-02-23T05:09:17;0.83;;;0.83;;
3939;SDS011;1984;48.312;9.244;2024-02-23T05:11:43;0.60;;;0.60;;
3939;SDS011;1984;48.312;9.244;2024-02-23T05:14:10;0.70;;;0.70;;
3939;SDS011;1984;48.312;9.244;2024-02-23T05:16:36;0.60;;;0.60;;
3939;SDS011;1984;48.312;9.244;2024-02-23T05:19:02;0.63;;;0.63;;
3939;SDS011;1984;48.312;9.244;2024-02-23T05:21:27;0.90;;;0.90;;
3939;SDS011;1984;48.312;9.244;2024-02-23T05:23:53;0.97;;;0.97;;
3939;SDS011;1984;48.312;9.244;2024-02-23T05:26:18;0.83;;;0.70;;
3939;SDS011;1984;48.312;9.244;2024-02-23T05:28:45;1.83;;;0.80;;
3939;SDS011;1984;48.312;9.244;2024-02-23T05:31:10;1.07;;;0.77;;
3939;SDS011;1984;48.312;9.244;2024-02-23T05:33:36;0.67;;;0.67;;
3939;SDS011;1984;48.312;9.244;2024-02-23T05:36:03;1.90;;;0.63;;
3939;SDS011;1984;48.312;9.244;2024-02-23T05:38:29;1.00;;;1.00;;
3939;SDS011;1984;48.312;9.244;2024-02-23T05:40:55;3.50;;;1.43;;
3939;SDS011;1984;48.312;9.244;2024-02-23T05:43:21;1.27;;;1.13;;
3939;SDS011;1984;48.312;9.244;2024-02-23T05:45:46;1.40;;;1.30;;
3939;SDS011;1984;48.312;9.244;2024-02-23T05:48:11;3.87;;;1.67;;
3939;SDS011;1984;48.312;9.244;2024-02-23T05:50:37;2.17;;;1.17;;
3939;SDS011;1984;48.312;9.244;2024-02-23T05:53:03;1.23;;;1.13;;
3939;SDS011;1984;48.312;9.244;2024-02-23T05:55:29;1.20;;;0.97;;
3939;SDS011;1984;48.312;9.244;2024-02-23T05:57:55;6.50;;;0.93;;
3939;SDS011;1984;48.312;9.244;2024-02-23T06:00:21;2.50;;;1.00;;
3939;SDS011;1984;48.312;9.244;2024-02-23T06:02:46;2.13;;;1.43;;
3939;SDS011;1984;48.312;9.244;2024-02-23T06:05:12;1.37;;;1.27;;
3939;SDS011;1984;48.312;9.244;2024-02-23T06:07:38;2.63;;;1.73;;
3939;SDS011;1984;48.312;9.244;2024-02-23T06:10:04;1.30;;;1.20;;
3939;SDS011;1984;48.312;9.244;2024-02-23T06:12:30;4.30;;;1.20;;
3939;SDS011;1984;48.312;9.244;2024-02-23T06:14:55;1.30;;;1.20;;
3939;SDS011;1984;48.312;9.244;2024-02-23T06:17:22;3.00;;;1.43;;
3939;SDS011;1984;48.312;9.244;2024-02-23T06:19:48;0.80;;;0.80;;
3939;SDS011;1984;48.312;9.244;2024-02-23T06:22:13;1.10;;;1.00;;
3939;SDS011;1984;48.312;9.244;2024-02-23T06:24:41;2.50;;;1.00;;
3939;SDS011;1984;48.312;9.244;2024-02-23T06:27:07;1.13;;;0.90;;
3939;SDS011;1984;48.312;9.244;2024-02-23T06:29:33;5.13;;;0.80;;
3939;SDS011;1984;48.312;9.244;2024-02-23T06:31:58;3.00;;;1.00;;
3939;SDS011;1984;48.312;9.244;2024-02-23T06:34:26;1.13;;;1.03;;
3939;SDS011;1984;48.312;9.244;2024-02-23T06:36:51;1.60;;;1.50;;
3939;SDS011;1984;48.312;9.244;2024-02-23T06:39:17;3.50;;;1.60;;
3939;SDS011;1984;48.312;9.244;2024-02-23T06:41:43;1.90;;;1.80;;
3939;SDS011;1984;48.312;9.244;2024-02-23T06:44:08;4.53;;;1.20;;
3939;SDS011;1984;48.312;9.244;2024-02-23T06:46:34;10.00;;;1.20;;
3939;SDS011;1984;48.312;9.244;2024-02-23T06:49:00;6.70;;;1.17;;
3939;SDS011;1984;48.312;9.244;2024-02-23T06:51:25;0.70;;;0.70;;
3939;SDS011;1984;48.312;9.244;2024-02-23T06:53:51;1.27;;;0.80;;
3939;SDS011;1984;48.312;9.244;2024-02-23T06:56:16;2.40;;;1.00;;
3939;SDS011;1984;48.312;9.244;2024-02-23T06:58:42;3.43;;;0.80;;
3939;SDS011;1984;48.312;9.244;2024-02-23T07:03:35;1.67;;;1.20;;
3939;SDS011;1984;48.312;9.244;2024-02-23T07:06:01;1.03;;;0.80;;
3939;SDS011;1984;48.312;9.244;2024-02-23T07:08:28;7.03;;;1.27;;
3939;SDS011;1984;48.312;9.244;2024-02-23T07:10:53;1.73;;;1.30;;
3939;SDS011;1984;48.312;9.244;2024-02-23T07:13:19;1.13;;;1.03;;
3939;SDS011;1984;48.312;9.244;2024-02-23T07:15:45;2.23;;;1.27;;
3939;SDS011;1984;48.312;9.244;2024-02-23T07:18:10;1.60;;;1.03;;
3939;SDS011;1984;48.312;9.244;2024-02-23T07:20:36;3.07;;;1.77;;
3939;SDS011;1984;48.312;9.244;2024-02-23T07:23:02;2.43;;;1.20;;
3939;SDS011;1984;48.312;9.244;2024-02-23T07:25:27;0.60;;;0.60;;
3939;SDS011;1984;48.312;9.244;2024-02-23T07:27:53;2.00;;;0.77;;
3939;SDS011;1984;48.312;9.244;2024-02-23T07:30:18;1.10;;;1.00;;
3939;SDS011;1984;48.312;9.244;2024-02-23T07:32:44;7.90;;;2.00;;
3939;SDS011;1984;48.312;9.244;2024-02-23T07:35:11;2.30;;;1.20;;
3939;SDS011;1984;48.312;9.244;2024-02-23T07:37:37;2.57;;;1.53;;
3939;SDS011;1984;48.312;9.244;2024-02-23T07:40:03;2.10;;;2.00;;
3939;SDS011;1984;48.312;9.244;2024-02-23T07:42:29;3.10;;;1.77;;
3939;SDS011;1984;48.312;9.244;2024-02-23T07:44:57;1.20;;;1.10;;
3939;SDS011;1984;48.312;9.244;2024-02-23T07:47:23;3.80;;;1.47;;
3939;SDS011;1984;48.312;9.244;2024-02-23T07:49:49;4.70;;;2.50;;
3939;SDS011;1984;48.312;9.244;2024-02-23T07:52:14;1.70;;;1.60;;
3939;SDS011;1984;48.312;9.244;2024-02-23T07:54:40;2.20;;;2.00;;
3939;SDS011;1984;48.312;9.244;2024-02-23T07:57:05;2.50;;;2.30;;
3939;SDS011;1984;48.312;9.244;2024-02-23T07:59:32;2.57;;;2.37;;
3939;SDS011;1984;48.312;9.244;2024-02-23T08:01:58;2.60;;;2.13;;
3939;SDS011;1984;48.312;9.244;2024-02-23T08:04:23;3.13;;;2.30;;
3939;SDS011;1984;48.312;9.244;2024-02-23T08:06:49;3.27;;;1.67;;
3939;SDS011;1984;48.312;9.244;2024-02-23T08:09:15;1.90;;;1.77;;
3939;SDS011;1984;48.312;9.244;2024-02-23T08:11:41;3.33;;;1.57;;
3939;SDS011;1984;48.312;9.244;2024-02-23T08:14:07;1.33;;;1.23;;
3939;SDS011;1984;48.312;9.244;2024-02-23T08:16:33;1.70;;;0.70;;
3939;SDS011;1984;48.312;9.244;2024-02-23T08:18:59;1.00;;;1.00;;
3939;SDS011;1984;48.312;9.244;2024-02-23T08:21:24;1.27;;;1.17;;
3939;SDS011;1984;48.312;9.244;2024-02-23T08:23:51;9.30;;;1.47;;
3939;SDS011;1984;48.312;9.244;2024-02-23T08:26:17;2.00;;;1.30;;
3939;SDS011;1984;48.312;9.244;2024-02-23T08:28:43;5.03;;;2.17;;
3939;SDS011;1984;48.312;9.244;2024-02-23T08:31:08;5.53;;;1.97;;
3939;SDS011;1984;48.312;9.244;2024-02-23T08:33:34;5.63;;;3.00;;
3939;SDS011;1984;48.312;9.244;2024-02-23T08:35:59;9.90;;;2.93;;
3939;SDS011;1984;48.312;9.244;2024-02-23T08:38:25;3.43;;;1.93;;
3939;SDS011;1984;48.312;9.244;2024-02-23T08:40:51;0.80;;;0.80;;
3939;SDS011;1984;48.312;9.244;2024-02-23T08:43:16;2.40;;;1.70;;
3939;SDS011;1984;48.312;9.244;2024-02-23T08:45:42;13.03;;;1.60;;
3939;SDS011;1984;48.312;9.244;2024-02-23T08:48:07;3.90;;;1.27;;
3939;SDS011;1984;48.312;9.244;2024-02-23T08:50:33;3.30;;;1.80;;
3939;SDS011;1984;48.312;9.244;2024-02-23T08:52:59;2.87;;;1.10;;
3939;SDS011;1984;48.312;9.244;2024-02-23T08:55:25;6.43;;;1.90;;
3939;SDS011;1984;48.312;9.244;2024-02-23T08:57:50;2.40;;;1.23;;
3939;SDS011;1984;48.312;9.244;2024-02-23T09:00:16;2.00;;;1.27;;
3939;SDS011;1984;48.312;9.244;2024-02-23T09:02:42;2.97;;;1.90;;
3939;SDS011;1984;48.312;9.244;2024-02-23T09:05:08;1.47;;;1.37;;
3939;SDS011;1984;48.312;9.244;2024-02-23T09:07:34;4.73;;;2.30;;
3939;SDS011;1984;48.312;9.244;2024-02-23T09:10:00;5.20;;;2.13;;
3939;SDS011;1984;48.312;9.244;2024-02-23T09:12:26;4.57;;;1.77;;
3939;SDS011;1984;48.312;9.244;2024-02-23T09:14:52;2.17;;;1.30;;
3939;SDS011;1984;48.312;9.244;2024-02-23T09:17:17;1.40;;;1.03;;
3939;SDS011;1984;48.312;9.244;2024-02-23T09:19:45;1.33;;;0.90;;
3939;SDS011;1984;48.312;9.244;2024-02-23T09:22:11;5.70;;;1.40;;
3939;SDS011;1984;48.312;9.244;2024-02-23T09:24:40;2.23;;;1.13;;
3939;SDS011;1984;48.312;9.244;2024-02-23T09:27:06;1.20;;;0.93;;
3939;SDS011;1984;48.312;9.244;2024-02-23T09:29:32;2.23;;;0.90;;
3939;SDS011;1984;48.312;9.244;2024-02-23T09:31:58;3.57;;;1.20;;
3939;SDS011;1984;48.312;9.244;2024-02-23T09:34:23;2.13;;;1.00;;
3939;SDS011;1984;48.312;9.244;2024-02-23T09:36:50;4.13;;;0.93;;
3939;SDS011;1984;48.312;9.244;2024-02-23T09:39:15;3.63;;;1.20;;
3939;SDS011;1984;48.312;9.244;2024-02-23T09:41:41;1.83;;;1.03;;
3939;SDS011;1984;48.312;9.244;2024-02-23T09:44:07;3.03;;;1.10;;
3939;SDS011;1984;48.312;9.244;2024-02-23T09:46:34;3.33;;;1.07;;
3939;SDS011;1984;48.312;9.244;2024-02-23T09:49:02;0.80;;;0.80;;
3939;SDS011;1984;48.312;9.244;2024-02-23T09:51:28;1.17;;;0.70;;
3939;SDS011;1984;48.312;9.244;2024-02-23T09:53:56;2.60;;;1.17;;
3939;SDS011;1984;48.312;9.244;2024-02-23T09:56:22;7.10;;;1.80;;
3939;SDS011;1984;48.312;9.244;2024-02-23T09:58:51;5.53;;;1.30;;
3939;SDS011;1984;48.312;9.244;2024-02-23T10:01:28;1.93;;;1.40;;
3939;SDS011;1984;48.312;9.244;2024-02-23T10:03:58;1.50;;;1.10;;
3939;SDS011;1984;48.312;9.244;2024-02-23T10:06:25;3.23;;;1.73;;
3939;SDS011;1984;48.312;9.244;2024-02-23T10:08:51;2.67;;;1.37;;
3939;SDS011;1984;48.312;9.244;2024-02-23T10:11:20;9.53;;;1.80;;
3939;SDS011;1984;48.312;9.244;2024-02-23T10:13:46;2.77;;;1.20;;
3939;SDS011;1984;48.312;9.244;2024-02-23T10:16:16;2.83;;;1.17;;
3939;SDS011;1984;48.312;9.244;2024-02-23T10:18:42;1.53;;;1.10;;
3939;SDS011;1984;48.312;9.244;2024-02-23T10:21:08;1.50;;;0.93;;
3939;SDS011;1984;48.312;9.244;2024-02-23T10:23:33;2.40;;;1.13;;
3939;SDS011;1984;48.312;9.244;2024-02-23T10:25:59;1.23;;;1.13;;
3939;SDS011;1984;48.312;9.244;2024-02-23T10:28:25;2.50;;;1.23;;
3939;SDS011;1984;48.312;9.244;2024-02-23T10:30:50;4.23;;;1.00;;
3939;SDS011;1984;48.312;9.244;2024-02-23T10:33:17;2.03;;;1.20;;
3939;SDS011;1984;48.312;9.244;2024-02-23T10:35:47;5.83;;;1.13;;
3939;SDS011;1984;48.312;9.244;2024-02-23T10:38:17;2.03;;;1.10;;
3939;SDS011;1984;48.312;9.244;2024-02-23T10:40:44;13.07;;;1.00;;
3939;SDS011;1984;48.312;9.244;2024-02-23T10:43:12;4.30;;;2.03;;
3939;SDS011;1984;48.312;9.244;2024-02-23T10:45:44;7.33;;;2.03;;
3939;SDS011;1984;48.312;9.244;2024-02-23T10:48:11;4.70;;;2.03;;
3939;SDS011;1984;48.312;9.244;2024-02-23T10:50:37;2.60;;;1.30;;
3939;SDS011;1984;48.312;9.244;2024-02-23T10:53:04;5.33;;;2.07;;
3939;SDS011;1984;48.312;9.244;2024-02-23T10:55:33;7.23;;;2.10;;
3939;SDS011;1984;48.312;9.244;2024-02-23T10:58:02;8.63;;;2.27;;
3939;SDS011;1984;48.312;9.244;2024-02-23T11:00:28;6.67;;;1.03;;
3939;SDS011;1984;48.312;9.244;2024-02-23T11:02:54;3.07;;;0.90;;
3939;SDS011;1984;48.312;9.244;2024-02-23T11:05:20;5.93;;;2.00;;
3939;SDS011;1984;48.312;9.244;2024-02-23T11:07:47;5.53;;;3.00;;
3939;SDS011;1984;48.312;9.244;2024-02-23T11:10:16;1.10;;;0.90;;
3939;SDS011;1984;48.312;9.244;2024-02-23T11:12:44;7.40;;;0.90;;
3939;SDS011;1984;48.312;9.244;2024-02-23T11:15:09;0.90;;;0.90;;
3939;SDS011;1984;48.312;9.244;2024-02-23T11:17:54;3.70;;;1.67;;
3939;SDS011;1984;48.312;9.244;2024-02-23T11:20:20;2.60;;;1.50;;
3939;SDS011;1984;48.312;9.244;2024-02-23T11:22:53;4.83;;;1.63;;
3939;SDS011;1984;48.312;9.244;2024-02-23T11:25:19;5.60;;;1.50;;
3939;SDS011;1984;48.312;9.244;2024-02-23T11:27:48;7.10;;;1.50;;
3939;SDS011;1984;48.312;9.244;2024-02-23T11:30:16;3.83;;;1.20;;
3939;SDS011;1984;48.312;9.244;2024-02-23T11:32:46;1.80;;;1.70;;
3939;SDS011;1984;48.312;9.244;2024-02-23T11:35:16;7.60;;;2.17;;
3939;SDS011;1984;48.312;9.244;2024-02-23T11:37:51;5.07;;;1.40;;
3939;SDS011;1984;48.312;9.244;2024-02-23T11:40:38;0.83;;;0.83;;
3939;SDS011;1984;48.312;9.244;2024-02-23T11:43:04;4.50;;;1.70;;
3939;SDS011;1984;48.312;9.244;2024-02-23T11:45:30;2.90;;;1.27;;
3939;SDS011;1984;48.312;9.244;2024-02-23T11:47:56;1.43;;;1.20;;
3939;SDS011;1984;48.312;9.244;2024-02-23T11:50:21;3.00;;;1.10;;
3939;SDS011;1984;48.312;9.244;2024-02-23T11:52:47;3.60;;;1.37;;
3939;SDS011;1984;48.312;9.244;2024-02-23T11:55:17;10.27;;;1.57;;
3939;SDS011;1984;48.312;9.244;2024-02-23T11:57:47;2.10;;;1.20;;
3939;SDS011;1984;48.312;9.244;2024-02-23T12:00:20;2.93;;;1.43;;
3939;SDS011;1984;48.312;9.244;2024-02-23T12:02:45;4.20;;;1.00;;
3939;SDS011;1984;48.312;9.244;2024-02-23T12:05:15;6.70;;;1.27;;
3939;SDS011;1984;48.312;9.244;2024-02-23T12:07:41;5.90;;;0.90;;
3939;SDS011;1984;48.312;9.244;2024-02-23T12:10:07;5.03;;;1.20;;
3939;SDS011;1984;48.312;9.244;2024-02-23T12:12:33;4.00;;;1.00;;
3939;SDS011;1984;48.312;9.244;2024-02-23T12:14:59;9.77;;;1.47;;
3939;SDS011;1984;48.312;9.244;2024-02-23T12:17:25;7.00;;;1.10;;
3939;SDS011;1984;48.312;9.244;2024-02-23T12:20:00;2.47;;;0.90;;
3939;SDS011;1984;48.312;9.244;2024-02-23T12:22:26;2.03;;;0.83;;
3939;SDS011;1984;48.312;9.244;2024-02-23T12:24:52;7.73;;;1.50;;
3939;SDS011;1984;48.312;9.244;2024-02-23T12:27:18;3.33;;;1.10;;
3939;SDS011;1984;48.312;9.244;2024-02-23T12:29:53;7.10;;;1.30;;
3939;SDS011;1984;48.312;9.244;2024-02-23T12:32:20;10.50;;;1.43;;
3939;SDS011;1984;48.312;9.244;2024-02-23T12:34:46;1.00;;;1.00;;
3939;SDS011;1984;48.312;9.244;2024-02-23T12:37:14;5.40;;;1.20;;
3939;SDS011;1984;48.312;9.244;2024-02-23T12:39:41;3.70;;;1.17;;
3939;SDS011;1984;48.312;9.244;2024-02-23T12:42:07;11.47;;;1.70;;
3939;SDS011;1984;48.312;9.244;2024-02-23T12:44:32;7.83;;;0.90;;
3939;SDS011;1984;48.312;9.244;2024-02-23T12:46:58;5.60;;;1.40;;
3939;SDS011;1984;48.312;9.244;2024-02-23T12:49:23;9.37;;;1.73;;
3939;SDS011;1984;48.312;9.244;2024-02-23T12:51:49;3.20;;;1.17;;
3939;SDS011;1984;48.312;9.244;2024-02-23T12:54:14;1.33;;;0.90;;
3939;SDS011;1984;48.312;9.244;2024-02-23T12:56:40;6.97;;;1.00;;
3939;SDS011;1984;48.312;9.244;2024-02-23T12:59:05;3.40;;;1.27;;
3939;SDS011;1984;48.312;9.244;2024-02-23T13:01:32;4.83;;;1.27;;
3939;SDS011;1984;48.312;9.244;2024-02-23T13:04:01;3.83;;;1.20;;
3939;SDS011;1984;48.312;9.244;2024-02-23T13:06:27;1.70;;;1.27;;
3939;SDS011;1984;48.312;9.244;2024-02-23T13:08:52;3.13;;;0.93;;
3939;SDS011;1984;48.312;9.244;2024-02-23T13:11:18;2.90;;;1.47;;
3939;SDS011;1984;48.312;9.244;2024-02-23T13:13:43;1.73;;;1.20;;
3939;SDS011;1984;48.312;9.244;2024-02-23T13:16:09;5.97;;;1.63;;
3939;SDS011;1984;48.312;9.244;2024-02-23T13:18:35;1.90;;;1.20;;
3939;SDS011;1984;48.312;9.244;2024-02-23T13:21:01;2.53;;;1.57;;
3939;SDS011;1984;48.312;9.244;2024-02-23T13:23:26;1.17;;;0.90;;
3939;SDS011;1984;48.312;9.244;2024-02-23T13:25:52;3.37;;;0.80;;
3939;SDS011;1984;48.312;9.244;2024-02-23T13:28:17;3.83;;;1.50;;
3939;SDS011;1984;48.312;9.244;2024-02-23T13:30:43;5.13;;;1.10;;
3939;SDS011;1984;48.312;9.244;2024-02-23T13:33:10;7.60;;;1.60;;
3939;SDS011;1984;48.312;9.244;2024-02-23T13:35:36;1.10;;;1.00;;
3939;SDS011;1984;48.312;9.244;2024-02-23T13:38:02;8.20;;;1.23;;
3939;SDS011;1984;48.312;9.244;2024-02-23T13:40:31;4.13;;;1.10;;
3939;SDS011;1984;48.312;9.244;2024-02-23T13:42:57;1.63;;;1.00;;
3939;SDS011;1984;48.312;9.244;2024-02-23T13:45:23;5.17;;;1.50;;
3939;SDS011;1984;48.312;9.244;2024-02-23T13:47:59;9.60;;;2.07;;
3939;SDS011;1984;48.312;9.244;2024-02-23T13:50:26;3.67;;;1.47;;
3939;SDS011;1984;48.312;9.244;2024-02-23T13:52:52;3.50;;;1.63;;
3939;SDS011;1984;48.312;9.244;2024-02-23T13:55:18;8.53;;;2.30;;
3939;SDS011;1984;48.312;9.244;2024-02-23T13:57:45;1.57;;;0.97;;
3939;SDS011;1984;48.312;9.244;2024-02-23T14:00:12;3.73;;;1.20;;
3939;SDS011;1984;48.312;9.244;2024-02-23T14:02:38;5.80;;;1.67;;
3939;SDS011;1984;48.312;9.244;2024-02-23T14:05:05;6.13;;;2.30;;
3939;SDS011;1984;48.312;9.244;2024-02-23T14:07:31;4.50;;;2.00;;
3939;SDS011;1984;48.312;9.244;2024-02-23T14:10:00;7.30;;;1.80;;
3939;SDS011;1984;48.312;9.244;2024-02-23T14:12:27;2.00;;;1.20;;
3939;SDS011;1984;48.312;9.244;2024-02-23T14:14:53;6.27;;;1.77;;
3939;SDS011;1984;48.312;9.244;2024-02-23T14:17:19;2.93;;;1.40;;
3939;SDS011;1984;48.312;9.244;2024-02-23T14:19:44;4.73;;;1.57;;
3939;SDS011;1984;48.312;9.244;2024-02-23T14:22:10;1.73;;;1.40;;
3939;SDS011;1984;48.312;9.244;2024-02-23T14:24:36;9.00;;;1.27;;
3939;SDS011;1984;48.312;9.244;2024-02-23T14:27:02;4.80;;;1.70;;
3939;SDS011;1984;48.312;9.244;2024-02-23T14:29:27;8.60;;;3.73;;
3939;SDS011;1984;48.312;9.244;2024-02-23T14:31:53;9.33;;;4.70;;
3939;SDS011;1984;48.312;9.244;2024-02-23T14:34:18;5.63;;;2.40;;
3939;SDS011;1984;48.312;9.244;2024-02-23T14:36:46;3.80;;;2.17;;
3939;SDS011;1984;48.312;9.244;2024-02-23T14:39:11;5.57;;;1.73;;
3939;SDS011;1984;48.312;9.244;2024-02-23T14:41:37;3.83;;;1.07;;
3939;SDS011;1984;48.312;9.244;2024-02-23T14:44:04;6.63;;;1.60;;
3939;SDS011;1984;48.312;9.244;2024-02-23T14:46:29;3.90;;;1.43;;
3939;SDS011;1984;48.312;9.244;2024-02-23T14:48:55;2.57;;;1.10;;
3939;SDS011;1984;48.312;9.244;2024-02-23T14:51:20;4.73;;;1.60;;
3939;SDS011;1984;48.312;9.244;2024-02-23T14:53:46;4.67;;;0.83;;
3939;SDS011;1984;48.312;9.244;2024-02-23T14:56:11;3.37;;;1.30;;
3939;SDS011;1984;48.312;9.244;2024-02-23T14:58:37;2.83;;;1.57;;
3939;SDS011;1984;48.312;9.244;2024-02-23T15:01:03;1.03;;;0.93;;
3939;SDS011;1984;48.312;9.244;2024-02-23T15:03:29;0.80;;;0.80;;
3939;SDS011;1984;48.312;9.244;2024-02-23T15:05:57;2.50;;;1.30;;
3939;SDS011;1984;48.312;9.244;2024-02-23T15:08:23;3.83;;;1.53;;
3939;SDS011;1984;48.312;9.244;2024-02-23T15:10:48;3.93;;;1.43;;